createdAt,value
2023-04-08T00:00:54.682Z,5.68
2023-04-08T00:01:54.774Z,5.69
2023-04-08T00:02:54.751Z,5.71
2023-04-08T00:03:54.788Z,5.69
2023-04-08T00:04:54.673Z,5.69
2023-04-08T00:05:54.616Z,5.68
2023-04-08T00:06:54.608Z,5.69
2023-04-08T00:07:54.644Z,5.68
2023-04-08T00:08:54.591Z,5.68
2023-04-08T00:09:54.589Z,5.69
2023-04-08T00:10:54.580Z,5.68
2023-04-08T00:11:54.562Z,5.69
2023-04-08T00:12:54.585Z,5.69
2023-04-08T00:13:54.535Z,5.68
2023-04-08T00:14:54.522Z,5.69
2023-04-08T00:15:54.502Z,5.71
2023-04-08T00:16:54.507Z,5.72
2023-04-08T00:17:54.656Z,5.71
2023-04-08T00:18:54.478Z,5.72
2023-04-08T00:19:54.453Z,5.72
2023-04-08T00:20:54.459Z,5.73
2023-04-08T00:21:54.426Z,5.72
2023-04-08T00:22:54.465Z,5.73
2023-04-08T00:23:54.395Z,5.72
2023-04-08T00:24:54.423Z,5.73
2023-04-08T00:25:54.391Z,5.73
2023-04-08T00:26:54.379Z,5.75
2023-04-08T00:27:54.405Z,5.73
2023-04-08T00:28:54.360Z,5.76
2023-04-08T00:29:54.346Z,5.73
2023-04-08T00:30:54.403Z,5.76
2023-04-08T00:31:54.332Z,5.76
2023-04-08T00:32:54.363Z,5.76
2023-04-08T00:33:54.297Z,5.75
2023-04-08T00:34:54.294Z,5.76
2023-04-08T00:35:54.321Z,5.75
2023-04-08T00:36:54.268Z,5.76
2023-04-08T00:37:54.303Z,5.76
2023-04-08T00:38:54.248Z,5.79
2023-04-08T00:39:54.246Z,5.79
2023-04-08T00:40:54.233Z,5.79
2023-04-08T00:41:54.220Z,5.76
2023-04-08T00:42:54.238Z,5.79
2023-04-08T00:43:54.182Z,5.79
2023-04-08T00:44:54.191Z,5.79
2023-04-08T00:45:54.182Z,5.80
2023-04-08T00:46:54.167Z,5.82
2023-04-08T00:47:54.236Z,5.80
2023-04-08T00:48:54.142Z,5.82
2023-04-08T00:49:54.123Z,5.82
2023-04-08T00:50:54.111Z,5.82
2023-04-08T00:51:54.096Z,5.82
2023-04-08T00:52:54.144Z,5.80
2023-04-08T00:53:54.058Z,5.82
2023-04-08T00:54:54.087Z,5.84
2023-04-08T00:55:54.037Z,5.83
2023-04-08T00:56:54.053Z,5.84
2023-04-08T00:57:54.059Z,5.83
2023-04-08T00:58:54.013Z,5.86
2023-04-08T00:59:54.008Z,5.84
2023-04-08T01:00:53.997Z,5.84
2023-04-08T01:01:54.080Z,5.86
2023-04-08T01:02:54.117Z,5.86
2023-04-08T01:03:54.036Z,5.86
2023-04-08T01:04:53.946Z,5.89
2023-04-08T01:05:53.925Z,5.84
2023-04-08T01:06:53.934Z,5.87
2023-04-08T01:07:54.034Z,5.87
2023-04-08T01:08:53.905Z,5.87
2023-04-08T01:09:53.906Z,5.87
2023-04-08T01:10:53.907Z,6.01
2023-04-08T01:11:53.875Z,5.93
2023-04-08T01:12:53.898Z,5.97
2023-04-08T01:13:53.861Z,5.98
2023-04-08T01:14:53.841Z,5.98
2023-04-08T01:15:53.861Z,5.98
2023-04-08T01:16:53.818Z,5.98
2023-04-08T01:17:53.856Z,5.99
2023-04-08T01:18:53.792Z,6.01
2023-04-08T01:19:53.775Z,6.01
2023-04-08T01:20:53.754Z,6.01
2023-04-08T01:21:53.736Z,5.99
2023-04-08T01:22:53.788Z,6.01
2023-04-08T01:23:53.715Z,5.99
2023-04-08T01:24:53.718Z,5.99
2023-04-08T01:25:53.760Z,6.04
2023-04-08T01:26:53.691Z,5.98
2023-04-08T01:27:53.725Z,5.99
2023-04-08T01:28:53.676Z,5.99
2023-04-08T01:29:53.643Z,5.98
2023-04-08T01:30:53.683Z,5.99
2023-04-08T01:31:53.632Z,6.01
2023-04-08T01:32:53.741Z,5.99
2023-04-08T01:33:53.643Z,5.99
2023-04-08T01:34:53.603Z,6.01
2023-04-08T01:35:53.657Z,6.01
2023-04-08T01:36:53.596Z,5.99
2023-04-08T01:37:53.608Z,6.01
2023-04-08T01:38:53.556Z,6.01
2023-04-08T01:39:53.536Z,6.02
2023-04-08T01:40:53.536Z,6.01
2023-04-08T01:41:53.515Z,6.02
2023-04-08T01:42:53.553Z,6.01
2023-04-08T01:43:53.501Z,6.02
2023-04-08T01:44:53.485Z,6.02
2023-04-08T01:45:53.474Z,6.01
2023-04-08T01:46:53.496Z,5.98
2023-04-08T01:47:53.595Z,6.02
2023-04-08T01:48:53.466Z,5.97
2023-04-08T01:49:53.436Z,6.01
2023-04-08T01:50:53.416Z,5.91
2023-04-08T01:51:53.397Z,5.97
2023-04-08T01:52:53.435Z,6.02
2023-04-08T01:53:53.391Z,6.02
2023-04-08T01:54:53.422Z,6.01
2023-04-08T01:55:53.364Z,6.07
2023-04-08T01:56:53.395Z,6.07
2023-04-08T01:57:53.386Z,6.05
2023-04-08T01:58:53.331Z,6.07
2023-04-08T01:59:53.412Z,6.07
2023-04-08T02:00:53.310Z,6.07
2023-04-08T02:01:53.347Z,6.09
2023-04-08T02:02:53.511Z,6.08
2023-04-08T02:03:53.374Z,6.09
2023-04-08T02:04:53.275Z,6.09
2023-04-08T02:05:53.253Z,6.11
2023-04-08T02:06:53.244Z,6.09
2023-04-08T02:07:53.272Z,6.11
2023-04-08T02:08:53.212Z,6.08
2023-04-08T02:09:53.217Z,6.11
2023-04-08T02:10:53.198Z,6.11
2023-04-08T02:11:53.189Z,6.09
2023-04-08T02:12:53.247Z,6.12
2023-04-08T02:13:53.163Z,6.11
2023-04-08T02:14:53.166Z,6.11
2023-04-08T02:15:53.200Z,6.12
2023-04-08T02:16:53.130Z,6.11
2023-04-08T02:17:53.184Z,6.12
2023-04-08T02:18:53.151Z,6.12
2023-04-08T02:19:53.146Z,6.14
2023-04-08T02:20:53.071Z,6.12
2023-04-08T02:21:53.073Z,6.14
2023-04-08T02:22:53.066Z,6.12
2023-04-08T02:23:53.102Z,6.14
2023-04-08T02:24:53.048Z,6.14
2023-04-08T02:25:53.040Z,6.17
2023-04-08T02:26:53.016Z,6.16
2023-04-08T02:27:53.019Z,6.14
2023-04-08T02:28:53.168Z,6.16
2023-04-08T02:29:52.976Z,6.17
2023-04-08T02:30:52.992Z,6.17
2023-04-08T02:31:53.052Z,6.17
2023-04-08T02:32:52.994Z,6.17
2023-04-08T02:33:52.987Z,6.19
2023-04-08T02:34:52.909Z,6.19
2023-04-08T02:35:52.938Z,6.20
2023-04-08T02:36:52.911Z,6.19
2023-04-08T02:37:52.888Z,6.20
2023-04-08T02:38:52.990Z,6.19
2023-04-08T02:39:52.882Z,6.20
2023-04-08T02:40:52.888Z,6.20
2023-04-08T02:41:52.846Z,6.22
2023-04-08T02:42:52.836Z,6.22
2023-04-08T02:43:52.868Z,6.24
2023-04-08T02:44:52.810Z,6.22
2023-04-08T02:45:52.892Z,6.24
2023-04-08T02:46:52.819Z,6.24
2023-04-08T02:47:52.801Z,6.22
2023-04-08T02:48:52.814Z,6.20
2023-04-08T02:49:52.821Z,6.26
2023-04-08T02:50:52.745Z,6.22
2023-04-08T02:51:52.802Z,6.26
2023-04-08T02:52:52.764Z,6.24
2023-04-08T02:53:52.805Z,6.22
2023-04-08T02:54:52.701Z,6.24
2023-04-08T02:55:52.682Z,6.26
2023-04-08T02:56:52.691Z,6.26
2023-04-08T02:57:52.680Z,6.28
2023-04-08T02:58:52.731Z,6.27
2023-04-08T02:59:52.671Z,6.27
2023-04-08T03:00:52.690Z,6.28
2023-04-08T03:01:52.815Z,6.28
2023-04-08T03:02:52.815Z,6.28
2023-04-08T03:03:52.804Z,6.31
2023-04-08T03:04:52.585Z,6.31
2023-04-08T03:05:52.580Z,6.33
2023-04-08T03:06:52.594Z,6.31
2023-04-08T03:07:52.568Z,6.33
2023-04-08T03:08:52.784Z,6.33
2023-04-08T03:09:52.528Z,6.35
2023-04-08T03:10:52.615Z,6.35
2023-04-08T03:11:52.599Z,6.35
2023-04-08T03:12:52.506Z,6.36
2023-04-08T03:13:52.565Z,6.35
2023-04-08T03:14:52.481Z,6.35
2023-04-08T03:15:52.490Z,6.35
2023-04-08T03:16:52.535Z,6.36
2023-04-08T03:17:52.472Z,6.36
2023-04-08T03:18:52.727Z,6.38
2023-04-08T03:19:52.437Z,6.38
2023-04-08T03:20:52.413Z,6.39
2023-04-08T03:21:52.436Z,6.39
2023-04-08T03:22:52.429Z,6.38
2023-04-08T03:23:52.469Z,6.38
2023-04-08T03:24:52.354Z,6.41
2023-04-08T03:25:52.339Z,6.39
2023-04-08T03:26:52.327Z,6.44
2023-04-08T03:27:52.324Z,6.44
2023-04-08T03:28:52.458Z,6.42
2023-04-08T03:29:52.308Z,6.44
2023-04-08T03:30:52.274Z,6.45
2023-04-08T03:31:52.293Z,6.46
2023-04-08T03:32:52.376Z,6.45
2023-04-08T03:33:52.298Z,6.46
2023-04-08T03:34:52.218Z,6.48
2023-04-08T03:35:52.258Z,6.48
2023-04-08T03:36:52.206Z,6.48
2023-04-08T03:37:52.208Z,6.49
2023-04-08T03:38:52.434Z,6.49
2023-04-08T03:39:52.190Z,6.52
2023-04-08T03:40:52.162Z,6.49
2023-04-08T03:41:52.157Z,6.51
2023-04-08T03:42:52.158Z,6.51
2023-04-08T03:43:52.203Z,6.49
2023-04-08T03:44:52.118Z,6.52
2023-04-08T03:45:52.173Z,6.54
2023-04-08T03:46:52.086Z,6.54
2023-04-08T03:47:52.161Z,6.56
2023-04-08T03:48:52.307Z,6.57
2023-04-08T03:49:52.051Z,6.59
2023-04-08T03:50:52.047Z,6.57
2023-04-08T03:51:52.152Z,6.59
2023-04-08T03:52:52.039Z,6.62
2023-04-08T03:53:52.050Z,6.62
2023-04-08T03:54:52.002Z,6.63
2023-04-08T03:55:51.995Z,6.66
2023-04-08T03:56:51.976Z,6.64
2023-04-08T03:57:51.968Z,6.63
2023-04-08T03:58:52.287Z,6.63
2023-04-08T03:59:51.932Z,6.64
2023-04-08T04:00:51.923Z,6.64
2023-04-08T04:01:51.947Z,6.66
2023-04-08T04:02:51.924Z,6.64
2023-04-08T04:03:52.113Z,6.66
2023-04-08T04:04:51.957Z,6.66
2023-04-08T04:05:51.870Z,6.67
2023-04-08T04:06:51.862Z,6.69
2023-04-08T04:07:51.851Z,6.70
2023-04-08T04:08:52.021Z,6.70
2023-04-08T04:09:51.822Z,6.72
2023-04-08T04:10:51.804Z,6.72
2023-04-08T04:11:51.801Z,6.75
2023-04-08T04:12:51.767Z,6.77
2023-04-08T04:13:51.852Z,6.81
2023-04-08T04:14:51.757Z,6.81
2023-04-08T04:15:51.767Z,6.81
2023-04-08T04:16:51.728Z,6.81
2023-04-08T04:17:51.744Z,6.81
2023-04-08T04:18:51.963Z,6.82
2023-04-08T04:19:51.699Z,6.84
2023-04-08T04:20:51.702Z,6.85
2023-04-08T04:21:51.685Z,6.85
2023-04-08T04:22:51.667Z,6.85
2023-04-08T04:23:51.705Z,6.88
2023-04-08T04:24:51.645Z,6.89
2023-04-08T04:25:51.640Z,6.92
2023-04-08T04:26:51.615Z,6.92
2023-04-08T04:27:51.624Z,6.93
2023-04-08T04:28:51.901Z,6.93
2023-04-08T04:29:51.620Z,6.96
2023-04-08T04:30:51.661Z,6.93
2023-04-08T04:31:51.577Z,6.95
2023-04-08T04:32:51.627Z,6.96
2023-04-08T04:33:51.597Z,6.96
2023-04-08T04:34:51.553Z,6.96
2023-04-08T04:35:51.531Z,6.97
2023-04-08T04:36:51.530Z,6.97
2023-04-08T04:37:51.501Z,7.00
2023-04-08T04:38:51.881Z,6.99
2023-04-08T04:39:51.496Z,7.00
2023-04-08T04:40:51.454Z,6.99
2023-04-08T04:41:51.451Z,6.99
2023-04-08T04:42:51.430Z,6.99
2023-04-08T04:43:51.472Z,6.99
2023-04-08T04:44:51.406Z,7.00
2023-04-08T04:45:51.404Z,7.00
2023-04-08T04:46:51.542Z,7.02
2023-04-08T04:47:51.435Z,7.03
2023-04-08T04:48:51.651Z,7.02
2023-04-08T04:49:51.467Z,7.03
2023-04-08T04:50:51.370Z,7.02
2023-04-08T04:51:51.352Z,7.05
2023-04-08T04:52:51.397Z,7.05
2023-04-08T04:53:51.385Z,7.05
2023-04-08T04:54:51.302Z,7.03
2023-04-08T04:55:51.301Z,7.05
2023-04-08T04:56:51.304Z,7.06
2023-04-08T04:57:51.305Z,7.06
2023-04-08T04:58:51.442Z,7.06
2023-04-08T04:59:51.276Z,7.07
2023-04-08T05:00:51.232Z,7.07
2023-04-08T05:01:51.287Z,7.07
2023-04-08T05:02:51.354Z,7.10
2023-04-08T05:03:51.263Z,7.11
2023-04-08T05:04:51.203Z,7.13
2023-04-08T05:05:51.184Z,7.13
2023-04-08T05:06:51.311Z,7.14
2023-04-08T05:07:51.170Z,7.15
2023-04-08T05:08:51.360Z,7.14
2023-04-08T05:09:51.134Z,7.14
2023-04-08T05:10:51.125Z,7.14
2023-04-08T05:11:51.113Z,7.14
2023-04-08T05:12:51.102Z,7.13
2023-04-08T05:13:51.136Z,7.14
2023-04-08T05:14:51.079Z,7.14
2023-04-08T05:15:51.119Z,7.17
2023-04-08T05:16:51.067Z,7.17
2023-04-08T05:17:51.084Z,7.18
2023-04-08T05:18:51.329Z,7.18
2023-04-08T05:19:51.028Z,7.18
2023-04-08T05:20:51.020Z,7.18
2023-04-08T05:21:51.166Z,7.20
2023-04-08T05:22:51.018Z,7.21
2023-04-08T05:23:51.023Z,7.24
2023-04-08T05:24:51.036Z,7.23
2023-04-08T05:25:50.972Z,7.24
2023-04-08T05:26:50.955Z,7.24
2023-04-08T05:27:50.955Z,7.25
2023-04-08T05:28:51.036Z,7.25
2023-04-08T05:29:50.977Z,7.28
2023-04-08T05:30:50.911Z,7.31
2023-04-08T05:31:50.964Z,7.33
2023-04-08T05:32:50.959Z,7.35
2023-04-08T05:33:50.892Z,7.35
2023-04-08T05:34:50.978Z,7.38
2023-04-08T05:35:50.918Z,7.38
2023-04-08T05:36:50.848Z,7.39
2023-04-08T05:37:50.838Z,7.43
2023-04-08T05:38:50.984Z,7.47
2023-04-08T05:39:50.849Z,7.48
2023-04-08T05:40:50.818Z,7.53
2023-04-08T05:41:50.782Z,7.54
2023-04-08T05:42:50.768Z,7.58
2023-04-08T05:43:50.746Z,7.60
2023-04-08T05:44:50.813Z,7.61
2023-04-08T05:45:50.749Z,7.66
2023-04-08T05:46:50.785Z,7.70
2023-04-08T05:47:50.797Z,7.75
2023-04-08T05:48:51.073Z,7.73
2023-04-08T05:49:51.315Z,7.72
2023-04-08T05:50:50.697Z,7.75
2023-04-08T05:51:50.675Z,7.75
2023-04-08T05:52:50.657Z,7.73
2023-04-08T05:53:50.656Z,7.72
2023-04-08T05:54:50.677Z,7.73
2023-04-08T05:55:50.663Z,7.75
2023-04-08T05:56:50.614Z,7.77
2023-04-08T05:57:50.648Z,7.73
2023-04-08T05:58:50.912Z,7.66
2023-04-08T05:59:50.636Z,7.61
2023-04-08T06:00:50.562Z,7.63
2023-04-08T06:01:50.674Z,7.66
2023-04-08T06:02:50.778Z,7.70
2023-04-08T06:03:50.741Z,7.72
2023-04-08T06:04:50.687Z,7.72
2023-04-08T06:05:50.488Z,7.76
2023-04-08T06:06:50.486Z,7.79
2023-04-08T06:07:50.675Z,7.76
2023-04-08T06:08:50.558Z,7.73
2023-04-08T06:09:50.556Z,7.73
2023-04-08T06:10:50.434Z,7.82
2023-04-08T06:11:50.430Z,7.76
2023-04-08T06:12:50.406Z,7.76
2023-04-08T06:13:50.415Z,7.77
2023-04-08T06:14:50.425Z,7.76
2023-04-08T06:15:50.372Z,7.82
2023-04-08T06:16:50.430Z,7.82
2023-04-08T06:17:50.422Z,7.87
2023-04-08T06:18:50.569Z,7.88
2023-04-08T06:19:50.379Z,7.91
2023-04-08T06:20:50.507Z,7.87
2023-04-08T06:21:50.302Z,7.90
2023-04-08T06:22:50.285Z,7.80
2023-04-08T06:23:50.304Z,7.83
2023-04-08T06:24:50.326Z,7.80
2023-04-08T06:25:50.283Z,7.87
2023-04-08T06:26:50.249Z,7.82
2023-04-08T06:27:50.255Z,7.85
2023-04-08T06:28:50.407Z,7.85
2023-04-08T06:29:50.255Z,7.88
2023-04-08T06:30:50.202Z,7.85
2023-04-08T06:31:50.256Z,7.80
2023-04-08T06:32:50.220Z,7.80
2023-04-08T06:33:50.427Z,7.82
2023-04-08T06:34:50.211Z,7.88
2023-04-08T06:35:50.172Z,7.88
2023-04-08T06:36:50.133Z,7.91
2023-04-08T06:37:50.134Z,7.90
2023-04-08T06:38:50.269Z,7.90
2023-04-08T06:39:50.118Z,7.91
2023-04-08T06:40:50.085Z,7.95
2023-04-08T06:41:50.082Z,8.00
2023-04-08T06:42:50.054Z,7.94
2023-04-08T06:43:50.061Z,7.88
2023-04-08T06:44:50.099Z,7.88
2023-04-08T06:45:50.063Z,7.98
2023-04-08T06:46:50.021Z,7.97
2023-04-08T06:47:50.099Z,7.97
2023-04-08T06:48:50.110Z,7.93
2023-04-08T06:49:50.035Z,7.98
2023-04-08T06:50:49.951Z,8.10
2023-04-08T06:51:49.969Z,8.13
2023-04-08T06:52:49.960Z,8.16
2023-04-08T06:53:49.937Z,8.13
2023-04-08T06:54:49.975Z,8.23
2023-04-08T06:55:49.916Z,8.36
2023-04-08T06:56:49.900Z,8.41
2023-04-08T06:57:49.888Z,8.42
2023-04-08T06:58:50.061Z,8.71
2023-04-08T06:59:49.910Z,9.02
2023-04-08T07:00:49.891Z,9.23
2023-04-08T07:01:49.963Z,9.36
2023-04-08T07:02:49.910Z,9.34
2023-04-08T07:03:49.896Z,9.13
2023-04-08T07:04:49.860Z,8.91
2023-04-08T07:05:49.801Z,8.82
2023-04-08T07:06:49.791Z,8.74
2023-04-08T07:07:49.765Z,8.78
2023-04-08T07:08:49.976Z,8.92
2023-04-08T07:09:49.803Z,8.99
2023-04-08T07:10:49.737Z,9.03
2023-04-08T07:11:49.762Z,9.06
2023-04-08T07:12:49.729Z,9.00
2023-04-08T07:13:49.887Z,8.92
2023-04-08T07:14:49.749Z,8.87
2023-04-08T07:15:49.688Z,8.71
2023-04-08T07:16:49.721Z,8.66
2023-04-08T07:17:49.694Z,8.88
2023-04-08T07:18:49.850Z,9.02
2023-04-08T07:19:49.687Z,9.06
2023-04-08T07:20:49.640Z,8.95
2023-04-08T07:21:49.625Z,8.99
2023-04-08T07:22:49.599Z,9.19
2023-04-08T07:23:49.610Z,9.34
2023-04-08T07:24:49.681Z,9.28
2023-04-08T07:25:49.583Z,9.28
2023-04-08T07:26:49.566Z,9.34
2023-04-08T07:27:49.556Z,9.32
2023-04-08T07:28:49.845Z,9.36
2023-04-08T07:29:49.569Z,9.41
2023-04-08T07:30:49.562Z,9.44
2023-04-08T07:31:49.531Z,9.89
2023-04-08T07:32:49.491Z,10.37
2023-04-08T07:33:49.479Z,10.07
2023-04-08T07:34:49.515Z,9.94
2023-04-08T07:35:49.542Z,9.94
2023-04-08T07:36:49.450Z,9.91
2023-04-08T07:37:49.440Z,9.94
2023-04-08T07:38:49.701Z,9.94
2023-04-08T07:39:49.460Z,9.74
2023-04-08T07:40:49.491Z,9.48
2023-04-08T07:41:49.364Z,9.40
2023-04-08T07:42:49.386Z,9.26
2023-04-08T07:43:49.368Z,9.16
2023-04-08T07:44:49.392Z,9.03
2023-04-08T07:45:49.386Z,8.91
2023-04-08T07:46:49.351Z,8.82
2023-04-08T07:47:49.404Z,8.89
2023-04-08T07:48:49.614Z,8.95
2023-04-08T07:49:49.333Z,8.92
2023-04-08T07:51:08.196Z,8.87
2023-04-08T07:51:50.275Z,8.85
2023-04-08T07:52:49.262Z,8.82
2023-04-08T07:53:49.243Z,8.88
2023-04-08T07:54:49.256Z,8.99
2023-04-08T07:55:49.254Z,9.02
2023-04-08T07:56:49.214Z,9.00
2023-04-08T07:57:49.201Z,9.04
2023-04-08T07:58:51.206Z,9.04
2023-04-08T07:59:49.170Z,9.06
2023-04-08T08:00:49.219Z,9.02
2023-04-08T08:01:49.256Z,9.06
2023-04-08T08:02:49.268Z,9.02
2023-04-08T08:03:49.422Z,8.99
2023-04-08T08:04:49.128Z,8.94
2023-04-08T08:05:49.160Z,8.97
2023-04-08T08:06:49.084Z,8.99
2023-04-08T08:07:49.092Z,9.00
2023-04-08T08:08:49.082Z,8.95
2023-04-08T08:09:49.063Z,8.91
2023-04-08T08:10:49.094Z,8.95
2023-04-08T08:11:49.031Z,8.97
2023-04-08T08:12:49.025Z,9.11
2023-04-08T08:13:49.232Z,9.41
2023-04-08T08:14:49.014Z,10.34
2023-04-08T08:15:49.085Z,11.29
2023-04-08T08:16:48.979Z,11.43
2023-04-08T08:17:49.050Z,11.29
2023-04-08T08:18:49.000Z,10.81
2023-04-08T08:19:48.953Z,10.72
2023-04-08T08:20:48.994Z,10.72
2023-04-08T08:21:48.963Z,10.82
2023-04-08T08:22:57.116Z,10.69
2023-04-08T08:23:50.139Z,10.90
2023-04-08T08:24:48.896Z,10.46
2023-04-08T08:25:48.944Z,10.22
2023-04-08T08:26:48.875Z,10.17
2023-04-08T08:27:48.853Z,10.05
2023-04-08T08:28:48.866Z,10.10
2023-04-08T08:29:48.863Z,10.01
2023-04-08T08:30:48.887Z,9.98
2023-04-08T08:31:48.872Z,9.99
2023-04-08T08:32:48.807Z,10.04
2023-04-08T08:33:49.047Z,10.01
2023-04-08T08:34:48.772Z,10.05
2023-04-08T08:35:48.866Z,10.10
2023-04-08T08:36:48.763Z,9.97
2023-04-08T08:37:48.743Z,9.84
2023-04-08T08:38:48.843Z,9.68
2023-04-08T08:39:48.783Z,9.48
2023-04-08T08:40:48.771Z,9.26
2023-04-08T08:41:48.699Z,9.25
2023-04-08T08:42:48.706Z,9.31
2023-04-08T08:43:48.981Z,9.34
2023-04-08T08:44:48.687Z,9.28
2023-04-08T08:45:48.705Z,9.06
2023-04-08T08:46:48.676Z,8.88
2023-04-08T08:47:50.962Z,8.85
2023-04-08T08:48:48.649Z,8.81
2023-04-08T08:49:48.619Z,8.76
2023-04-08T08:50:48.668Z,8.66
2023-04-08T08:51:48.592Z,8.67
2023-04-08T08:52:48.633Z,8.69
2023-04-08T08:53:48.555Z,8.69
2023-04-08T08:54:48.563Z,8.67
2023-04-08T08:56:09.360Z,8.73
2023-04-08T08:56:49.534Z,8.67
2023-04-08T08:57:48.538Z,8.52
2023-04-08T08:58:48.522Z,8.46
2023-04-08T08:59:48.568Z,8.45
2023-04-08T09:00:48.537Z,8.48
2023-04-08T09:01:48.534Z,8.45
2023-04-08T09:02:48.652Z,8.42
2023-04-08T09:03:48.609Z,8.55
2023-04-08T09:04:48.572Z,8.69
2023-04-08T09:05:48.489Z,8.76
2023-04-08T09:06:48.410Z,8.78
2023-04-08T09:07:48.502Z,8.89
2023-04-08T09:08:48.406Z,9.04
2023-04-08T09:09:48.388Z,9.19
2023-04-08T09:10:48.431Z,9.22
2023-04-08T09:11:48.410Z,9.31
2023-04-08T09:12:48.403Z,9.18
2023-04-08T09:13:48.549Z,9.25
2023-04-08T09:14:48.340Z,9.13
2023-04-08T09:15:48.380Z,9.00
2023-04-08T09:16:48.618Z,8.92
2023-04-08T09:17:48.317Z,8.74
2023-04-08T09:18:49.397Z,8.66
2023-04-08T09:19:48.258Z,8.66
2023-04-08T09:20:48.325Z,8.56
2023-04-08T09:21:48.260Z,8.53
2023-04-08T09:22:48.319Z,8.30
2023-04-08T09:23:48.472Z,8.28
2023-04-08T09:24:48.254Z,8.26
2023-04-08T09:25:48.297Z,8.26
2023-04-08T09:26:48.188Z,8.15
2023-04-08T09:27:48.238Z,8.13
2023-04-08T09:28:48.189Z,8.09
2023-04-08T09:29:48.125Z,8.08
2023-04-08T09:30:48.181Z,8.03
2023-04-08T09:31:48.140Z,8.08
2023-04-08T09:32:48.186Z,8.08
2023-04-08T09:33:48.241Z,8.12
2023-04-08T09:34:48.128Z,8.10
2023-04-08T09:35:48.215Z,8.05
2023-04-08T09:36:48.070Z,8.01
2023-04-08T09:37:48.085Z,7.98
2023-04-08T09:38:48.086Z,7.98
2023-04-08T09:39:48.168Z,8.08
2023-04-08T09:40:48.061Z,8.15
2023-04-08T09:41:48.016Z,8.10
2023-04-08T09:42:48.007Z,8.03
2023-04-08T09:43:48.260Z,8.08
2023-04-08T09:44:47.997Z,8.10
2023-04-08T09:45:48.102Z,8.15
2023-04-08T09:46:47.978Z,8.15
2023-04-08T09:47:48.052Z,8.19
2023-04-08T09:48:48.001Z,8.09
2023-04-08T09:49:47.929Z,8.10
2023-04-08T09:50:47.980Z,8.06
2023-04-08T09:51:47.910Z,8.10
2023-04-08T09:52:47.909Z,8.06
2023-04-08T09:53:48.015Z,8.08
2023-04-08T09:54:47.880Z,8.12
2023-04-08T09:55:47.991Z,8.16
2023-04-08T09:56:47.866Z,8.19
2023-04-08T09:57:47.807Z,8.16
2023-04-08T09:58:47.802Z,8.01
2023-04-08T09:59:47.822Z,7.94
2023-04-08T10:00:47.899Z,7.94
2023-04-08T10:01:47.854Z,7.91
2023-04-08T10:02:47.952Z,7.85
2023-04-08T10:03:47.873Z,7.95
2023-04-08T10:04:47.794Z,7.97
2023-04-08T10:05:47.794Z,7.93
2023-04-08T10:06:47.772Z,7.91
2023-04-08T10:07:47.708Z,7.91
2023-04-08T10:08:47.725Z,7.80
2023-04-08T10:09:47.718Z,7.82
2023-04-08T10:10:48.029Z,7.76
2023-04-08T10:11:47.672Z,7.79
2023-04-08T10:12:47.669Z,7.79
2023-04-08T10:13:47.713Z,7.76
2023-04-08T10:14:47.671Z,7.72
2023-04-08T10:15:47.709Z,7.63
2023-04-08T10:16:47.649Z,7.58
2023-04-08T10:17:47.646Z,7.63
2023-04-08T10:18:47.592Z,7.69
2023-04-08T10:19:47.567Z,7.70
2023-04-08T10:20:47.626Z,7.75
2023-04-08T10:21:47.568Z,7.77
2023-04-08T10:22:47.555Z,7.77
2023-04-08T10:23:47.638Z,7.80
2023-04-08T10:24:47.528Z,7.82
2023-04-08T10:25:47.635Z,7.75
2023-04-08T10:26:47.518Z,7.56
2023-04-08T10:27:47.528Z,7.53
2023-04-08T10:28:47.493Z,7.45
2023-04-08T10:29:47.475Z,7.42
2023-04-08T10:30:47.553Z,7.39
2023-04-08T10:31:47.516Z,7.45
2023-04-08T10:32:47.463Z,7.47
2023-04-08T10:33:47.461Z,7.51
2023-04-08T10:34:47.407Z,7.58
2023-04-08T10:35:47.516Z,7.63
2023-04-08T10:36:47.399Z,7.79
2023-04-08T10:37:47.375Z,7.85
2023-04-08T10:38:47.386Z,7.88
2023-04-08T10:39:47.349Z,7.83
2023-04-08T10:40:47.411Z,7.80
2023-04-08T10:41:47.373Z,7.88
2023-04-08T10:42:47.314Z,7.90
2023-04-08T10:43:47.322Z,7.88
2023-04-08T10:44:47.265Z,7.77
2023-04-08T10:45:48.674Z,7.88
2023-04-08T10:46:47.261Z,7.93
2023-04-08T10:47:47.281Z,8.08
2023-04-08T10:48:47.240Z,7.98
2023-04-08T10:49:47.236Z,7.94
2023-04-08T10:50:47.224Z,7.95
2023-04-08T10:51:47.258Z,8.01
2023-04-08T10:52:47.185Z,8.09
2023-04-08T10:53:47.197Z,8.15
2023-04-08T10:54:47.173Z,8.27
2023-04-08T10:55:47.160Z,8.24
2023-04-08T10:56:47.205Z,8.26
2023-04-08T10:57:47.158Z,8.31
2023-04-08T10:58:47.140Z,8.36
2023-04-08T10:59:47.097Z,8.30
2023-04-08T11:00:47.121Z,8.27
2023-04-08T11:01:47.265Z,8.38
2023-04-08T11:02:47.179Z,8.46
2023-04-08T11:03:47.364Z,8.58
2023-04-08T11:04:47.084Z,8.56
2023-04-08T11:05:47.056Z,8.55
2023-04-08T11:06:47.088Z,8.60
2023-04-08T11:07:47.086Z,8.61
2023-04-08T11:08:47.031Z,8.53
2023-04-08T11:09:47.001Z,8.51
2023-04-08T11:10:47.026Z,8.37
2023-04-08T11:11:47.027Z,8.28
2023-04-08T11:12:46.978Z,8.42
2023-04-08T11:13:53.484Z,8.41
2023-04-08T11:14:49.470Z,8.34
2023-04-08T11:15:46.976Z,8.23
2023-04-08T11:16:46.972Z,8.19
2023-04-08T11:17:46.949Z,8.12
2023-04-08T11:18:46.884Z,8.16
2023-04-08T11:19:46.985Z,8.06
2023-04-08T11:20:46.872Z,8.08
2023-04-08T11:21:46.900Z,8.13
2023-04-08T11:22:46.852Z,8.06
2023-04-08T11:23:46.862Z,8.10
2023-04-08T11:24:46.839Z,8.01
2023-04-08T11:25:46.838Z,7.95
2023-04-08T11:26:46.859Z,7.93
2023-04-08T11:27:46.813Z,7.93
2023-04-08T11:28:46.766Z,7.88
2023-04-08T11:29:46.780Z,7.97
2023-04-08T11:30:46.788Z,7.94
2023-04-08T11:31:46.824Z,7.94
2023-04-08T11:32:46.789Z,7.97
2023-04-08T11:33:46.729Z,7.91
2023-04-08T11:34:46.708Z,7.80
2023-04-08T11:35:46.739Z,7.83
2023-04-08T11:36:46.752Z,7.94
2023-04-08T11:37:46.687Z,7.80
2023-04-08T11:38:46.662Z,7.73
2023-04-08T11:39:46.640Z,7.75
2023-04-08T11:40:46.649Z,7.70
2023-04-08T11:41:46.669Z,7.69
2023-04-08T11:42:47.171Z,7.70
2023-04-08T11:43:46.587Z,7.73
2023-04-08T11:44:46.599Z,7.67
2023-04-08T11:45:46.566Z,7.63
2023-04-08T11:46:46.624Z,7.56
2023-04-08T11:47:46.619Z,7.58
2023-04-08T11:48:46.568Z,7.57
2023-04-08T11:49:46.577Z,7.50
2023-04-08T11:50:46.557Z,7.51
2023-04-08T11:51:46.563Z,7.56
2023-04-08T11:52:46.524Z,7.58
2023-04-08T11:53:46.547Z,7.61
2023-04-08T11:54:46.494Z,7.70
2023-04-08T11:55:46.480Z,7.73
2023-04-08T11:56:46.504Z,7.76
2023-04-08T11:57:46.463Z,7.80
2023-04-08T11:58:46.467Z,7.94
2023-04-08T11:59:46.425Z,7.88
2023-04-08T12:00:46.414Z,7.94
2023-04-08T12:01:46.470Z,7.95
2023-04-08T12:02:46.482Z,7.98
2023-04-08T12:03:46.538Z,8.06
2023-04-08T12:04:46.430Z,7.87
2023-04-08T12:05:46.368Z,7.93
2023-04-08T12:06:46.368Z,7.93
2023-04-08T12:07:46.328Z,7.82
2023-04-08T12:08:46.318Z,7.76
2023-04-08T12:09:46.319Z,7.72
2023-04-08T12:10:46.300Z,7.72
2023-04-08T12:11:46.326Z,7.70
2023-04-08T12:12:46.251Z,7.72
2023-04-08T12:13:46.270Z,7.69
2023-04-08T12:14:46.277Z,7.70
2023-04-08T12:15:46.256Z,7.61
2023-04-08T12:16:46.314Z,7.54
2023-04-08T12:17:46.260Z,7.56
2023-04-08T12:18:46.203Z,7.50
2023-04-08T12:19:46.211Z,7.54
2023-04-08T12:20:46.180Z,7.51
2023-04-08T12:21:46.237Z,7.51
2023-04-08T12:22:46.160Z,7.50
2023-04-08T12:23:46.168Z,7.42
2023-04-08T12:24:46.148Z,7.39
2023-04-08T12:25:46.131Z,7.45
2023-04-08T12:26:46.203Z,7.54
2023-04-08T12:27:46.136Z,7.66
2023-04-08T12:28:46.142Z,7.66
2023-04-08T12:29:46.174Z,7.60
2023-04-08T12:30:46.076Z,7.61
2023-04-08T12:31:46.196Z,7.61
2023-04-08T12:32:46.251Z,7.61
2023-04-08T12:33:46.069Z,7.60
2023-04-08T12:34:46.033Z,7.61
2023-04-08T12:35:46.013Z,7.63
2023-04-08T12:36:46.039Z,7.61
2023-04-08T12:37:46.002Z,7.66
2023-04-08T12:38:45.972Z,7.60
2023-04-08T12:39:45.968Z,7.56
2023-04-08T12:40:45.947Z,7.60
2023-04-08T12:41:46.008Z,7.70
2023-04-08T12:42:45.937Z,7.72
2023-04-08T12:43:45.958Z,7.75
2023-04-08T12:44:45.916Z,7.70
2023-04-08T12:45:45.888Z,7.70
2023-04-08T12:46:46.019Z,7.70
2023-04-08T12:47:45.947Z,7.61
2023-04-08T12:48:47.473Z,7.63
2023-04-08T12:49:49.680Z,7.60
2023-04-08T12:50:45.841Z,7.53
2023-04-08T12:51:45.921Z,7.54
2023-04-08T12:52:45.828Z,7.50
2023-04-08T12:53:45.817Z,7.54
2023-04-08T12:54:45.819Z,7.53
2023-04-08T12:55:46.918Z,7.54
2023-04-08T12:56:45.825Z,7.56
2023-04-08T12:57:45.779Z,7.63
2023-04-08T12:58:45.884Z,7.45
2023-04-08T12:59:45.737Z,7.48
2023-04-08T13:00:45.735Z,7.48
2023-04-08T13:01:45.832Z,7.43
2023-04-08T13:02:45.769Z,7.38
2023-04-08T13:03:47.024Z,7.40
2023-04-08T13:04:45.670Z,7.45
2023-04-08T13:05:45.675Z,7.40
2023-04-08T13:06:45.770Z,7.42
2023-04-08T13:07:45.652Z,7.50
2023-04-08T13:08:45.638Z,7.47
2023-04-08T13:09:45.913Z,7.50
2023-04-08T13:10:45.797Z,7.43
2023-04-08T13:11:45.644Z,7.47
2023-04-08T13:12:45.576Z,7.36
2023-04-08T13:13:45.568Z,7.42
2023-04-08T13:14:45.574Z,7.42
2023-04-08T13:15:45.624Z,7.50
2023-04-08T13:16:45.567Z,7.53
2023-04-08T13:17:45.674Z,7.57